Va Bene — ZCIP8 — position and weather

sailwx.info

Track history (hours):
 
Tides and Currents Weather Stations Pressure Air Temp Water Temp Dewpoint Dewpoint Depression Visibility Wind Speed Wind Dir Waves Ship Positions

Va Bene

Last reported at 2017-Jun-21 22:04 UTC. Time now 2017-Jun-28 17:18 UTC.
Position N 39°11' E 018°22'.

Length 50 m; draft 3.3 m.

Type: Pleasure craft. MMSI: 319854000.

Date/timePositionNaut miles runAvg speedWind from/ knotsBaromVisibWave heightAir tempDewpointWater temp
2017-Jun-21 22:04N 39°11' E 018°22'511.9
2017-Jun-21 21:37N 39°08' E 018°16'112.0
2017-Jun-21 21:30N 39°07' E 018°15'612.0
2017-Jun-21 21:00N 39°04' E 018°09'13511.8
2017-Jun-21 09:33N 37°54' E 015°40'111.7
2017-Jun-21 09:26N 37°55' E 015°39'512.6
2017-Jun-21 09:00N 38°00' E 015°35'713.1
2017-Jun-21 08:27N 38°07' E 015°35'613.6
2017-Jun-21 08:00N 38°13' E 015°36'510.2
2017-Jun-21 07:29N 38°18' E 015°39'613.1
2017-Jun-21 07:00N 38°23' E 015°33'713.2
2017-Jun-21 06:28N 38°28' E 015°27'813.3
2017-Jun-21 05:51N 38°34' E 015°20'7812.9
2017-Jun-20 23:50N 39°30' E 014°10'1512.9
2017-Jun-20 22:39N 39°41' E 013°56'213.0
2017-Jun-20 22:29N 39°42' E 013°54'1813.0
2017-Jun-20 21:06N 39°55' E 013°38'112.6
2017-Jun-20 21:00N 39°56' E 013°37'12212.6
2017-Jun-20 11:18N 41°24' E 011°45'713.4
2017-Jun-20 10:45N 41°29' E 011°38'4313.3
2017-Jun-20 07:32N 42°01' E 010°58'013.2
2017-Jun-20 07:30N 42°01' E 010°58'612.9
2017-Jun-20 07:01N 42°06' E 010°52'1812.7
2017-Jun-20 05:36N 42°18' E 010°35'112.0
2017-Jun-20 05:30N 42°19' E 010°34'712.1
2017-Jun-20 04:56N 42°24' E 010°28'712.4
2017-Jun-20 04:22N 42°29' E 010°21'1412.5
2017-Jun-20 03:15N 42°39' E 010°08'5011.6
2017-Jun-19 22:54N 43°13' E 009°17'411.4
2017-Jun-19 22:30N 43°16' E 009°12'611.6
2017-Jun-19 22:00N 43°19' E 009°06'811.7
2017-Jun-19 21:21N 43°24' E 008°57'411.8
2017-Jun-19 21:00N 43°26' E 008°53'611.9
2017-Jun-19 20:30N 43°30' E 008°46'611.9
2017-Jun-19 20:00N 43°33' E 008°39'611.9
2017-Jun-19 19:30N 43°37' E 008°33'611.9
2017-Jun-19 19:00N 43°40' E 008°26'611.9
2017-Jun-19 18:30N 43°44' E 008°20'611.7
2017-Jun-19 18:00N 43°47' E 008°13'611.7
2017-Jun-19 17:30N 43°50' E 008°06'4 8.4
2017-Jun-19 17:00N 43°53' E 008°01'0 0.1
2017-Jun-19 16:29N 43°53' E 008°01'0 0.0
2017-Jun-19 15:56N 43°53' E 008°01'0 0.0
2017-Jun-19 15:11N 43°53' E 008°01'0 0.0
2017-Jun-19 01:47N 43°53' E 008°01'0 0.0
2017-Jun-19 01:29N 43°53' E 008°01'0 0.0
2017-Jun-19 00:59N 43°53' E 008°01'0 0.0
2017-Jun-19 00:29N 43°53' E 008°01'0 0.0
2017-Jun-18 12:23N 43°53' E 008°01'0 0.0
2017-Jun-17 23:50N 43°53' E 008°01'0 0.0
2017-Jun-17 16:53N 43°53' E 008°01'0 0.0
2017-Jun-17 07:56N 43°53' E 008°01'0 0.0
2017-Jun-17 07:02N 43°53' E 008°01'0 0.0
2017-Jun-17 06:50N 43°53' E 008°01'0 0.0
2017-Jun-17 06:26N 43°53' E 008°01'0 0.0
2017-Jun-17 05:59N 43°53' E 008°01'0 0.0
2017-Jun-17 05:29N 43°53' E 008°01'0 0.0
2017-Jun-17 04:56N 43°53' E 008°01'0 0.0
2017-Jun-17 04:20N 43°53' E 008°01'0 0.0
2017-Jun-17 03:53N 43°53' E 008°01'0 0.0
2017-Jun-17 03:14N 43°53' E 008°01'0 0.0
2017-Jun-17 02:59N 43°53' E 008°01'0 0.0
2017-Jun-16 21:08N 43°53' E 008°01'0 0.0
2017-Jun-16 20:44N 43°53' E 008°01'0 0.0
2017-Jun-16 20:20N 43°53' E 008°01'0 0.0
2017-Jun-16 19:59N 43°53' E 008°01'0 0.0
2017-Jun-16 19:26N 43°53' E 008°01'0 0.0
2017-Jun-16 18:59N 43°53' E 008°01'0 0.0
2017-Jun-16 18:26N 43°53' E 008°01'0 0.0
2017-Jun-16 17:59N 43°53' E 008°01'0 0.0
2017-Jun-16 17:29N 43°53' E 008°01'0 0.0
2017-Jun-16 16:44N 43°53' E 008°01'0 0.0
2017-Jun-16 16:29N 43°53' E 008°01'0 0.0
2017-Jun-16 15:56N 43°53' E 008°01'0 0.0
2017-Jun-16 15:29N 43°53' E 008°01'0 0.0
2017-Jun-16 13:56N 43°53' E 008°01'0 0.0
2017-Jun-16 12:38N 43°53' E 008°01'0 0.0
2017-Jun-16 11:41N 43°53' E 008°01'0 0.0
2017-Jun-16 11:14N 43°53' E 008°01'0 0.0
2017-Jun-16 10:59N 43°53' E 008°01'0 0.0
2017-Jun-16 10:29N 43°53' E 008°01'0 0.0
2017-Jun-16 09:50N 43°53' E 008°01'0 0.0
2017-Jun-16 09:08N 43°53' E 008°01'0 0.0
2017-Jun-16 08:38N 43°53' E 008°01'0 0.0
2017-Jun-16 08:23N 43°53' E 008°01'0 0.0
2017-Jun-16 07:50N 43°53' E 008°01'0 0.0
2017-Jun-16 06:17N 43°53' E 008°01'0 0.0
2017-Jun-16 05:29N 43°53' E 008°01'0 0.0
2017-Jun-16 04:50N 43°53' E 008°01'0 0.0
2017-Jun-16 04:29N 43°53' E 008°01'0 0.0
2017-Jun-16 03:59N 43°53' E 008°01'0 0.0
2017-Jun-16 03:05N 43°53' E 008°01'0 0.0
2017-Jun-16 02:53N 43°53' E 008°01'0 0.0
2017-Jun-16 02:14N 43°53' E 008°01'0 0.0
2017-Jun-16 01:50N 43°53' E 008°01'0 0.0
2017-Jun-15 22:35N 43°53' E 008°01'0 0.0
2017-Jun-15 22:26N 43°53' E 008°01'0 0.0
2017-Jun-15 21:53N 43°53' E 008°01'0 0.0
2017-Jun-15 20:08N 43°53' E 008°01'0 0.0
2017-Jun-13 20:02N 43°53' E 008°01'0 0.0
2017-Jun-13 19:56N 43°53' E 008°01'0 0.0
2017-Jun-13 17:26N 43°53' E 008°01'0 0.0
2017-Jun-13 16:47N 43°53' E 008°01'0 0.0
2017-Jun-13 15:11N 43°53' E 008°01'0 0.0
2017-Jun-13 14:59N 43°53' E 008°01'0 0.0
2017-Jun-13 12:20N 43°53' E 008°01'0 0.0
2017-Jun-13 11:50N 43°53' E 008°01'0 0.0
2017-Jun-13 11:17N 43°53' E 008°01'0 0.0
2017-Jun-13 10:56N 43°53' E 008°01'0 0.0
2017-Jun-13 10:26N 43°53' E 008°01'0 0.0
2017-Jun-13 09:59N 43°53' E 008°01'0 0.0
2017-Jun-13 09:20N 43°53' E 008°01'0 0.0
2017-Jun-13 08:59N 43°53' E 008°01'0 0.0
2017-Jun-13 08:26N 43°53' E 008°01'0 0.0
2017-Jun-12 20:32N 43°53' E 008°01'0 0.0
2017-Jun-12 20:20N 43°53' E 008°01'0 0.0
2017-Jun-12 19:56N 43°53' E 008°01'0 0.0
2017-Jun-12 19:26N 43°53' E 008°01'0 0.0
2017-Jun-12 18:59N 43°53' E 008°01'0 0.0
2017-Jun-12 18:26N 43°53' E 008°01'0 0.0
2017-Jun-12 17:59N 43°53' E 008°01'0 0.0
2017-Jun-12 17:29N 43°53' E 008°01'0 0.0
2017-Jun-12 16:50N 43°53' E 008°01'0 0.0
2017-Jun-12 16:26N 43°53' E 008°01'0 0.0
2017-Jun-12 15:32N 43°53' E 008°01'0 0.0
2017-Jun-12 15:20N 43°53' E 008°01'0 0.0
2017-Jun-12 11:29N 43°53' E 008°01'0 0.0
2017-Jun-12 10:56N 43°53' E 008°01'0 0.0
2017-Jun-12 10:29N 43°53' E 008°01'0 0.0
2017-Jun-12 09:53N 43°53' E 008°01'0 0.0
2017-Jun-12 09:08N 43°53' E 008°01'0 0.0
2017-Jun-12 08:53N 43°53' E 008°01'0 0.0
2017-Jun-12 08:26N 43°53' E 008°01'0 0.0
2017-Jun-12 07:50N 43°53' E 008°01'0 0.0
2017-Jun-12 07:26N 43°53' E 008°01'0 0.0
2017-Jun-12 06:56N 43°53' E 008°01'0 0.0
2017-Jun-12 06:20N 43°53' E 008°01'0 0.0
2017-Jun-12 05:53N 43°53' E 008°01'0 0.0
2017-Jun-12 05:29N 43°53' E 008°01'0 0.0
2017-Jun-12 04:47N 43°53' E 008°01'0 0.0
2017-Jun-12 04:29N 43°53' E 008°01'0 0.0
2017-Jun-12 02:59N 43°53' E 008°01'0 0.0
2017-Jun-12 02:08N 43°53' E 008°01'0 0.0
2017-Jun-12 01:56N 43°53' E 008°01'0 0.0
2017-Jun-12 01:29N 43°53' E 008°01'0 0.0
2017-Jun-12 00:56N 43°53' E 008°01'0 0.0
2017-Jun-12 00:23N 43°53' E 008°01'0 0.0
2017-Jun-11 23:56N 43°53' E 008°01'0 0.0
2017-Jun-11 23:29N 43°53' E 008°01'0 0.0
2017-Jun-11 22:59N 43°53' E 008°01'0 0.0
2017-Jun-11 22:26N 43°53' E 008°01'  
Track history (hours):
 
Tides and Currents Weather Stations Pressure Air Temp Water Temp Dewpoint Dewpoint Depression Visibility Wind Speed Wind Dir Waves Ship Positions

Va Bene

Last reported at 2017-Jun-21 22:04 UTC. Time now 2017-Jun-28 17:18 UTC.
Position N 39°11' E 018°22'.

Length 50 m; draft 3.3 m.

Type: Pleasure craft. MMSI: 319854000.

Date/timePositionNaut miles runAvg speedWind from/ knotsBaromVisibWave heightAir tempDewpointWater temp
2017-Jun-21 22:04N 39°11' E 018°22'511.9
2017-Jun-21 21:37N 39°08' E 018°16'112.0
2017-Jun-21 21:30N 39°07' E 018°15'612.0
2017-Jun-21 21:00N 39°04' E 018°09'13511.8
2017-Jun-21 09:33N 37°54' E 015°40'111.7
2017-Jun-21 09:26N 37°55' E 015°39'512.6
2017-Jun-21 09:00N 38°00' E 015°35'713.1
2017-Jun-21 08:27N 38°07' E 015°35'613.6
2017-Jun-21 08:00N 38°13' E 015°36'510.2
2017-Jun-21 07:29N 38°18' E 015°39'613.1
2017-Jun-21 07:00N 38°23' E 015°33'713.2
2017-Jun-21 06:28N 38°28' E 015°27'813.3
2017-Jun-21 05:51N 38°34' E 015°20'7812.9
2017-Jun-20 23:50N 39°30' E 014°10'1512.9
2017-Jun-20 22:39N 39°41' E 013°56'213.0
2017-Jun-20 22:29N 39°42' E 013°54'1813.0
2017-Jun-20 21:06N 39°55' E 013°38'112.6
2017-Jun-20 21:00N 39°56' E 013°37'12212.6
2017-Jun-20 11:18N 41°24' E 011°45'713.4
2017-Jun-20 10:45N 41°29' E 011°38'4313.3
2017-Jun-20 07:32N 42°01' E 010°58'013.2
2017-Jun-20 07:30N 42°01' E 010°58'612.9
2017-Jun-20 07:01N 42°06' E 010°52'1812.7
2017-Jun-20 05:36N 42°18' E 010°35'112.0
2017-Jun-20 05:30N 42°19' E 010°34'712.1
2017-Jun-20 04:56N 42°24' E 010°28'712.4
2017-Jun-20 04:22N 42°29' E 010°21'1412.5
2017-Jun-20 03:15N 42°39' E 010°08'5011.6
2017-Jun-19 22:54N 43°13' E 009°17'411.4
2017-Jun-19 22:30N 43°16' E 009°12'611.6
2017-Jun-19 22:00N 43°19' E 009°06'811.7
2017-Jun-19 21:21N 43°24' E 008°57'411.8
2017-Jun-19 21:00N 43°26' E 008°53'611.9
2017-Jun-19 20:30N 43°30' E 008°46'611.9
2017-Jun-19 20:00N 43°33' E 008°39'611.9
2017-Jun-19 19:30N 43°37' E 008°33'611.9
2017-Jun-19 19:00N 43°40' E 008°26'611.9
2017-Jun-19 18:30N 43°44' E 008°20'611.7
2017-Jun-19 18:00N 43°47' E 008°13'611.7
2017-Jun-19 17:30N 43°50' E 008°06'4 8.4
2017-Jun-19 17:00N 43°53' E 008°01'0 0.1
2017-Jun-19 16:29N 43°53' E 008°01'0 0.0
2017-Jun-19 15:56N 43°53' E 008°01'0 0.0
2017-Jun-19 15:11N 43°53' E 008°01'0 0.0
2017-Jun-19 01:47N 43°53' E 008°01'0 0.0
2017-Jun-19 01:29N 43°53' E 008°01'0 0.0
2017-Jun-19 00:59N 43°53' E 008°01'0 0.0
2017-Jun-19 00:29N 43°53' E 008°01'0 0.0
2017-Jun-18 12:23N 43°53' E 008°01'0 0.0
2017-Jun-17 23:50N 43°53' E 008°01'0 0.0
2017-Jun-17 16:53N 43°53' E 008°01'0 0.0
2017-Jun-17 07:56N 43°53' E 008°01'0 0.0
2017-Jun-17 07:02N 43°53' E 008°01'0 0.0
2017-Jun-17 06:50N 43°53' E 008°01'0 0.0
2017-Jun-17 06:26N 43°53' E 008°01'0 0.0
2017-Jun-17 05:59N 43°53' E 008°01'0 0.0
2017-Jun-17 05:29N 43°53' E 008°01'0 0.0
2017-Jun-17 04:56N 43°53' E 008°01'0 0.0
2017-Jun-17 04:20N 43°53' E 008°01'0 0.0
2017-Jun-17 03:53N 43°53' E 008°01'0 0.0
2017-Jun-17 03:14N 43°53' E 008°01'0 0.0
2017-Jun-17 02:59N 43°53' E 008°01'0 0.0
2017-Jun-16 21:08N 43°53' E 008°01'0 0.0
2017-Jun-16 20:44N 43°53' E 008°01'0 0.0
2017-Jun-16 20:20N 43°53' E 008°01'0 0.0
2017-Jun-16 19:59N 43°53' E 008°01'0 0.0
2017-Jun-16 19:26N 43°53' E 008°01'0 0.0
2017-Jun-16 18:59N 43°53' E 008°01'0 0.0
2017-Jun-16 18:26N 43°53' E 008°01'0 0.0
2017-Jun-16 17:59N 43°53' E 008°01'0 0.0
2017-Jun-16 17:29N 43°53' E 008°01'0 0.0
2017-Jun-16 16:44N 43°53' E 008°01'0 0.0
2017-Jun-16 16:29N 43°53' E 008°01'0 0.0
2017-Jun-16 15:56N 43°53' E 008°01'0 0.0
2017-Jun-16 15:29N 43°53' E 008°01'0 0.0
2017-Jun-16 13:56N 43°53' E 008°01'0 0.0
2017-Jun-16 12:38N 43°53' E 008°01'0 0.0
2017-Jun-16 11:41N 43°53' E 008°01'0 0.0
2017-Jun-16 11:14N 43°53' E 008°01'0 0.0
2017-Jun-16 10:59N 43°53' E 008°01'0 0.0
2017-Jun-16 10:29N 43°53' E 008°01'0 0.0
2017-Jun-16 09:50N 43°53' E 008°01'0 0.0
2017-Jun-16 09:08N 43°53' E 008°01'0 0.0
2017-Jun-16 08:38N 43°53' E 008°01'0 0.0
2017-Jun-16 08:23N 43°53' E 008°01'0 0.0
2017-Jun-16 07:50N 43°53' E 008°01'0 0.0
2017-Jun-16 06:17N 43°53' E 008°01'0 0.0
2017-Jun-16 05:29N 43°53' E 008°01'0 0.0
2017-Jun-16 04:50N 43°53' E 008°01'0 0.0
2017-Jun-16 04:29N 43°53' E 008°01'0 0.0
2017-Jun-16 03:59N 43°53' E 008°01'0 0.0
2017-Jun-16 03:05N 43°53' E 008°01'0 0.0
2017-Jun-16 02:53N 43°53' E 008°01'0 0.0
2017-Jun-16 02:14N 43°53' E 008°01'0 0.0
2017-Jun-16 01:50N 43°53' E 008°01'0 0.0
2017-Jun-15 22:35N 43°53' E 008°01'0 0.0
2017-Jun-15 22:26N 43°53' E 008°01'0 0.0
2017-Jun-15 21:53N 43°53' E 008°01'0 0.0
2017-Jun-15 20:08N 43°53' E 008°01'0 0.0
2017-Jun-13 20:02N 43°53' E 008°01'0 0.0
2017-Jun-13 19:56N 43°53' E 008°01'0 0.0
2017-Jun-13 17:26N 43°53' E 008°01'0 0.0
2017-Jun-13 16:47N 43°53' E 008°01'0 0.0
2017-Jun-13 15:11N 43°53' E 008°01'0 0.0
2017-Jun-13 14:59N 43°53' E 008°01'0 0.0
2017-Jun-13 12:20N 43°53' E 008°01'0 0.0
2017-Jun-13 11:50N 43°53' E 008°01'0 0.0
2017-Jun-13 11:17N 43°53' E 008°01'0 0.0
2017-Jun-13 10:56N 43°53' E 008°01'0 0.0
2017-Jun-13 10:26N 43°53' E 008°01'0 0.0
2017-Jun-13 09:59N 43°53' E 008°01'0 0.0
2017-Jun-13 09:20N 43°53' E 008°01'0 0.0
2017-Jun-13 08:59N 43°53' E 008°01'0 0.0
2017-Jun-13 08:26N 43°53' E 008°01'0 0.0
2017-Jun-12 20:32N 43°53' E 008°01'0 0.0
2017-Jun-12 20:20N 43°53' E 008°01'0 0.0
2017-Jun-12 19:56N 43°53' E 008°01'0 0.0
2017-Jun-12 19:26N 43°53' E 008°01'0 0.0
2017-Jun-12 18:59N 43°53' E 008°01'0 0.0
2017-Jun-12 18:26N 43°53' E 008°01'0 0.0
2017-Jun-12 17:59N 43°53' E 008°01'0 0.0
2017-Jun-12 17:29N 43°53' E 008°01'0 0.0
2017-Jun-12 16:50N 43°53' E 008°01'0 0.0
2017-Jun-12 16:26N 43°53' E 008°01'0 0.0
2017-Jun-12 15:32N 43°53' E 008°01'0 0.0
2017-Jun-12 15:20N 43°53' E 008°01'0 0.0
2017-Jun-12 11:29N 43°53' E 008°01'0 0.0
2017-Jun-12 10:56N 43°53' E 008°01'0 0.0
2017-Jun-12 10:29N 43°53' E 008°01'0 0.0
2017-Jun-12 09:53N 43°53' E 008°01'0 0.0
2017-Jun-12 09:08N 43°53' E 008°01'0 0.0
2017-Jun-12 08:53N 43°53' E 008°01'0 0.0
2017-Jun-12 08:26N 43°53' E 008°01'0 0.0
2017-Jun-12 07:50N 43°53' E 008°01'0 0.0
2017-Jun-12 07:26N 43°53' E 008°01'0 0.0
2017-Jun-12 06:56N 43°53' E 008°01'0 0.0
2017-Jun-12 06:20N 43°53' E 008°01'0 0.0
2017-Jun-12 05:53N 43°53' E 008°01'0 0.0
2017-Jun-12 05:29N 43°53' E 008°01'0 0.0
2017-Jun-12 04:47N 43°53' E 008°01'0 0.0
2017-Jun-12 04:29N 43°53' E 008°01'0 0.0
2017-Jun-12 02:59N 43°53' E 008°01'0 0.0
2017-Jun-12 02:08N 43°53' E 008°01'0 0.0
2017-Jun-12 01:56N 43°53' E 008°01'0 0.0
2017-Jun-12 01:29N 43°53' E 008°01'0 0.0
2017-Jun-12 00:56N 43°53' E 008°01'0 0.0
2017-Jun-12 00:23N 43°53' E 008°01'0 0.0
2017-Jun-11 23:56N 43°53' E 008°01'0 0.0
2017-Jun-11 23:29N 43°53' E 008°01'0 0.0
2017-Jun-11 22:59N 43°53' E 008°01'0 0.0
2017-Jun-11 22:26N 43°53' E 008°01'  

Dump ship's entire track history